createdAt,value
2022-10-31T00:01:13.376Z,95.67
2022-10-31T00:03:40.009Z,96.38
2022-10-31T00:06:06.739Z,96.90
2022-10-31T00:08:33.444Z,97.33
2022-10-31T00:11:00.051Z,97.97
2022-10-31T00:13:26.647Z,98.46
2022-10-31T00:15:53.263Z,96.82
2022-10-31T00:18:19.845Z,96.93
2022-10-31T00:20:46.448Z,96.49
2022-10-31T00:23:13.117Z,97.08
2022-10-31T00:25:40.912Z,97.46
2022-10-31T00:28:08.850Z,97.64
2022-10-31T00:30:35.486Z,98.78
2022-10-31T00:33:05.281Z,98.65
2022-10-31T00:35:31.984Z,98.38
2022-10-31T00:37:58.568Z,98.62
2022-10-31T00:40:25.582Z,99.53
2022-10-31T00:42:52.266Z,99.72
2022-10-31T00:45:18.962Z,99.90
2022-10-31T00:47:45.603Z,100.00
2022-10-31T00:50:12.221Z,100.00
2022-10-31T00:52:38.950Z,100.00
2022-10-31T00:55:05.695Z,100.00
2022-10-31T00:57:32.237Z,100.00
2022-10-31T00:59:58.894Z,100.00
2022-10-31T01:02:25.528Z,100.00
2022-10-31T01:04:52.186Z,100.00
2022-10-31T01:07:18.949Z,100.00
2022-10-31T01:09:45.558Z,100.00
2022-10-31T01:12:12.194Z,100.00
2022-10-31T01:14:38.670Z,99.11
2022-10-31T01:17:05.217Z,98.32
2022-10-31T01:19:31.878Z,98.08
2022-10-31T01:21:58.472Z,97.92
2022-10-31T01:24:25.170Z,97.87
2022-10-31T01:26:51.793Z,98.59
2022-10-31T01:29:18.440Z,98.04
2022-10-31T01:31:45.103Z,98.18
2022-10-31T01:34:17.271Z,98.25
2022-10-31T01:36:46.130Z,98.90
2022-10-31T01:39:15.541Z,98.92
2022-10-31T01:41:50.758Z,98.79
2022-10-31T01:44:17.339Z,100.00
2022-10-31T01:47:02.418Z,100.00
2022-10-31T01:49:47.351Z,100.00
2022-10-31T01:52:21.747Z,100.00
2022-10-31T01:55:23.260Z,100.00
2022-10-31T01:57:54.923Z,100.00
2022-10-31T02:00:22.949Z,100.00
2022-10-31T02:02:51.401Z,100.00
2022-10-31T02:05:22.072Z,100.00
2022-10-31T02:07:58.362Z,100.00
2022-10-31T02:10:25.833Z,100.00
2022-10-31T02:13:00.367Z,100.00
2022-10-31T02:15:27.846Z,100.00
2022-10-31T02:17:54.446Z,100.00
2022-10-31T02:20:23.359Z,100.00
2022-10-31T02:22:55.919Z,100.00
2022-10-31T02:26:00.410Z,100.00
2022-10-31T02:29:04.718Z,100.00
2022-10-31T02:31:47.897Z,100.00
2022-10-31T02:34:24.743Z,100.00
2022-10-31T02:37:15.226Z,100.00
2022-10-31T02:40:20.667Z,100.00
2022-10-31T02:43:24.355Z,100.00
2022-10-31T02:46:05.883Z,100.00
2022-10-31T02:48:36.442Z,100.00
2022-10-31T02:51:05.286Z,100.00
2022-10-31T02:53:36.161Z,100.00
2022-10-31T02:56:07.594Z,100.00
2022-10-31T02:58:39.115Z,100.00
2022-10-31T03:01:18.132Z,100.00
2022-10-31T03:04:00.000Z,100.00
2022-10-31T03:06:32.080Z,100.00
2022-10-31T03:09:23.979Z,100.00
2022-10-31T03:12:02.222Z,100.00
2022-10-31T03:14:37.595Z,100.00
2022-10-31T03:17:09.288Z,100.00
2022-10-31T03:19:41.251Z,100.00
2022-10-31T03:22:13.231Z,100.00
2022-10-31T03:24:40.733Z,100.00
2022-10-31T03:27:11.309Z,100.00
2022-10-31T03:29:41.263Z,100.00
2022-10-31T03:32:13.894Z,100.00
2022-10-31T03:34:45.013Z,100.00
2022-10-31T03:37:15.585Z,100.00
2022-10-31T03:39:44.929Z,100.00
2022-10-31T03:42:23.343Z,100.00
2022-10-31T03:45:19.918Z,100.00
2022-10-31T03:47:46.621Z,100.00
2022-10-31T03:50:16.211Z,100.00
2022-10-31T03:52:49.019Z,100.00
2022-10-31T03:55:24.244Z,100.00
2022-10-31T03:58:01.207Z,100.00
2022-10-31T04:00:28.378Z,100.00
2022-10-31T04:03:02.206Z,100.00
2022-10-31T04:05:31.824Z,100.00
2022-10-31T04:08:01.178Z,100.00
2022-10-31T04:10:32.943Z,100.00
2022-10-31T04:13:08.271Z,100.00
2022-10-31T04:15:38.099Z,100.00
2022-10-31T04:18:06.302Z,100.00
2022-10-31T04:20:41.809Z,100.00
2022-10-31T04:23:17.379Z,100.00
2022-10-31T04:25:43.815Z,100.00
2022-10-31T04:28:10.353Z,100.00
2022-10-31T04:30:37.024Z,100.00
2022-10-31T04:33:03.860Z,100.00
2022-10-31T04:35:30.535Z,100.00
2022-10-31T04:37:57.016Z,100.00
2022-10-31T04:40:23.673Z,100.00
2022-10-31T04:42:50.295Z,100.00
2022-10-31T04:45:20.146Z,100.00
2022-10-31T04:47:47.972Z,100.00
2022-10-31T04:50:14.491Z,100.00
2022-10-31T04:52:45.796Z,100.00
2022-10-31T04:55:13.443Z,100.00
2022-10-31T04:57:43.734Z,100.00
2022-10-31T05:00:13.680Z,100.00
2022-10-31T05:02:44.719Z,100.00
2022-10-31T05:05:12.021Z,100.00
2022-10-31T05:07:42.155Z,100.00
2022-10-31T05:10:10.950Z,100.00
2022-10-31T05:12:38.044Z,100.00
2022-10-31T05:15:06.393Z,100.00
2022-10-31T05:17:33.242Z,100.00
2022-10-31T05:19:59.839Z,100.00
2022-10-31T05:22:26.529Z,100.00
2022-10-31T05:24:53.124Z,100.00
2022-10-31T05:27:19.786Z,100.00
2022-10-31T05:29:46.464Z,100.00
2022-10-31T05:32:13.185Z,100.00
2022-10-31T05:34:39.722Z,100.00
2022-10-31T05:37:06.320Z,100.00
2022-10-31T05:39:32.858Z,100.00
2022-10-31T05:41:59.504Z,100.00
2022-10-31T05:44:26.181Z,100.00
2022-10-31T05:46:52.805Z,100.00
2022-10-31T05:49:19.565Z,100.00
2022-10-31T05:51:46.160Z,100.00
2022-10-31T05:54:15.897Z,100.00
2022-10-31T05:56:42.797Z,100.00
2022-10-31T05:59:09.391Z,100.00
2022-10-31T06:01:36.030Z,100.00
2022-10-31T06:04:02.737Z,100.00
2022-10-31T06:06:29.431Z,100.00
2022-10-31T06:08:56.098Z,100.00
2022-10-31T06:11:22.744Z,100.00
2022-10-31T06:13:49.360Z,100.00
2022-10-31T06:16:16.021Z,100.00
2022-10-31T06:18:42.577Z,100.00
2022-10-31T06:21:09.636Z,100.00
2022-10-31T06:23:37.459Z,100.00
2022-10-31T06:26:04.102Z,100.00
2022-10-31T06:28:30.711Z,100.00
2022-10-31T06:30:57.378Z,100.00
2022-10-31T06:33:24.032Z,100.00
2022-10-31T06:35:50.636Z,100.00
2022-10-31T06:38:17.327Z,100.00
2022-10-31T06:40:43.843Z,100.00
2022-10-31T06:43:12.273Z,100.00
2022-10-31T06:45:38.858Z,100.00
2022-10-31T06:48:21.634Z,100.00
2022-10-31T06:50:48.463Z,100.00
2022-10-31T06:53:15.413Z,100.00
2022-10-31T06:55:43.127Z,100.00
2022-10-31T06:58:11.337Z,100.00
2022-10-31T07:00:38.484Z,100.00
2022-10-31T07:03:12.012Z,100.00
2022-10-31T07:05:39.300Z,100.00
2022-10-31T07:08:09.694Z,100.00
2022-10-31T07:10:40.489Z,100.00
2022-10-31T07:13:11.697Z,100.00
2022-10-31T07:15:39.659Z,100.00
2022-10-31T07:18:08.831Z,100.00
2022-10-31T07:20:35.995Z,100.00
2022-10-31T07:23:03.234Z,100.00
2022-10-31T07:25:30.194Z,100.00
2022-10-31T07:27:57.408Z,100.00
2022-10-31T07:30:24.384Z,100.00
2022-10-31T07:32:51.843Z,100.00
2022-10-31T07:35:24.694Z,100.00
2022-10-31T07:37:51.860Z,100.00
2022-10-31T07:40:20.254Z,100.00
2022-10-31T07:42:48.735Z,100.00
2022-10-31T07:45:17.970Z,100.00
2022-10-31T07:47:45.565Z,100.00
2022-10-31T07:50:15.304Z,100.00
2022-10-31T07:52:41.937Z,100.00
2022-10-31T07:55:08.935Z,100.00
2022-10-31T07:57:35.866Z,100.00
2022-10-31T08:00:02.614Z,100.00
2022-10-31T08:02:29.147Z,100.00
2022-10-31T08:04:58.686Z,100.00
2022-10-31T08:07:27.821Z,99.38
2022-10-31T08:09:54.795Z,97.87
2022-10-31T08:12:21.803Z,96.35
2022-10-31T08:14:48.795Z,94.92
2022-10-31T08:17:15.784Z,94.58
2022-10-31T08:19:42.454Z,92.38
2022-10-31T08:22:09.067Z,93.43
2022-10-31T08:24:35.630Z,92.52
2022-10-31T08:27:02.220Z,88.74
2022-10-31T08:29:28.908Z,88.51
2022-10-31T08:31:55.380Z,87.82
2022-10-31T08:34:21.981Z,88.25
2022-10-31T08:36:48.641Z,89.20
2022-10-31T08:39:15.238Z,88.63
2022-10-31T08:41:41.872Z,89.30
2022-10-31T08:44:08.495Z,88.14
2022-10-31T08:46:35.450Z,88.46
2022-10-31T08:49:02.165Z,86.54
2022-10-31T08:51:28.747Z,85.48
2022-10-31T08:53:55.244Z,84.80
2022-10-31T08:56:23.456Z,84.36
2022-10-31T08:58:50.259Z,83.45
2022-10-31T09:01:17.051Z,83.70
2022-10-31T09:03:43.791Z,83.21
2022-10-31T09:06:10.438Z,83.22
2022-10-31T09:08:37.259Z,83.19
2022-10-31T09:11:05.088Z,82.58
2022-10-31T09:13:31.752Z,82.97
2022-10-31T09:15:59.813Z,81.16
2022-10-31T09:18:29.015Z,80.85
2022-10-31T09:20:59.027Z,80.22
2022-10-31T09:23:26.006Z,78.90
2022-10-31T09:25:54.167Z,78.74
2022-10-31T09:28:23.454Z,79.04
2022-10-31T09:30:52.750Z,79.45
2022-10-31T09:33:19.691Z,78.55
2022-10-31T09:35:46.801Z,78.71
2022-10-31T09:38:20.327Z,79.26
2022-10-31T09:41:11.356Z,78.17
2022-10-31T09:44:05.761Z,77.92
2022-10-31T09:46:41.796Z,76.23
2022-10-31T09:49:23.653Z,76.40
2022-10-31T09:52:00.280Z,75.97
2022-10-31T09:54:39.231Z,73.83
2022-10-31T09:57:11.760Z,73.79
2022-10-31T09:59:41.357Z,73.95
2022-10-31T10:02:17.616Z,75.10
2022-10-31T10:05:05.461Z,73.30
2022-10-31T10:08:02.122Z,73.97
2022-10-31T10:10:42.438Z,73.83
2022-10-31T10:13:37.793Z,73.57
2022-10-31T10:16:48.301Z,73.34
2022-10-31T10:19:27.068Z,73.51
2022-10-31T10:22:19.719Z,73.27
2022-10-31T10:24:46.237Z,73.04
2022-10-31T10:27:37.290Z,74.77
2022-10-31T10:30:42.405Z,73.47
2022-10-31T10:33:13.611Z,74.92
2022-10-31T10:35:46.535Z,74.04
2022-10-31T10:38:17.262Z,73.49
2022-10-31T10:40:44.745Z,74.43
2022-10-31T10:43:24.497Z,73.84
2022-10-31T10:46:13.120Z,75.21
2022-10-31T10:48:53.474Z,75.59
2022-10-31T10:51:38.941Z,75.22
2022-10-31T10:54:21.235Z,75.60
2022-10-31T10:56:57.518Z,75.11
2022-10-31T10:59:24.287Z,76.14
2022-10-31T11:01:52.869Z,77.45
2022-10-31T11:04:34.954Z,78.15
2022-10-31T11:07:11.148Z,78.22
2022-10-31T11:09:38.722Z,78.29
2022-10-31T11:12:10.678Z,77.80
2022-10-31T11:14:54.510Z,78.19
2022-10-31T11:17:26.415Z,78.10
2022-10-31T11:20:05.296Z,77.78
2022-10-31T11:22:32.047Z,77.29
2022-10-31T11:24:58.637Z,78.03
2022-10-31T11:27:26.807Z,77.94
2022-10-31T11:29:56.886Z,78.89
2022-10-31T11:32:28.598Z,78.63
2022-10-31T11:35:00.091Z,79.92
2022-10-31T11:37:33.738Z,81.11
2022-10-31T11:40:03.016Z,82.85
2022-10-31T11:42:39.225Z,80.85
2022-10-31T11:45:29.390Z,82.57
2022-10-31T11:47:59.868Z,82.24
2022-10-31T11:50:40.593Z,82.77
2022-10-31T11:53:17.096Z,82.75
2022-10-31T11:55:44.122Z,83.53
2022-10-31T11:58:26.454Z,83.50
2022-10-31T12:00:55.934Z,83.52
2022-10-31T12:03:39.771Z,83.25
2022-10-31T12:06:10.093Z,83.36
2022-10-31T12:08:38.382Z,84.09
2022-10-31T12:11:23.674Z,84.00
2022-10-31T12:14:04.019Z,84.18
2022-10-31T12:16:49.177Z,83.65
2022-10-31T12:19:34.048Z,84.23
2022-10-31T12:22:13.085Z,84.54
2022-10-31T12:24:57.919Z,84.88
2022-10-31T12:27:24.387Z,85.29
2022-10-31T12:30:16.733Z,85.62
2022-10-31T12:33:21.651Z,86.03
2022-10-31T12:36:17.281Z,85.84
2022-10-31T12:38:50.540Z,85.08
2022-10-31T12:41:19.903Z,85.99
2022-10-31T12:44:06.553Z,87.02
2022-10-31T12:47:02.462Z,87.28
2022-10-31T12:49:43.292Z,87.78
2022-10-31T12:52:15.547Z,87.84
2022-10-31T12:54:48.264Z,88.08
2022-10-31T12:57:17.877Z,88.85
2022-10-31T12:59:50.209Z,89.47
2022-10-31T13:02:20.483Z,89.45
2022-10-31T13:05:02.910Z,88.87
2022-10-31T13:07:38.937Z,88.69
2022-10-31T13:10:15.437Z,89.01
2022-10-31T13:12:43.577Z,89.40
2022-10-31T13:15:19.271Z,89.43
2022-10-31T13:18:12.408Z,88.86
2022-10-31T13:20:44.434Z,89.15
2022-10-31T13:23:36.573Z,89.62
2022-10-31T13:26:08.077Z,89.88
2022-10-31T13:28:46.057Z,89.22
2022-10-31T13:31:14.364Z,89.83
2022-10-31T13:33:48.230Z,90.31
2022-10-31T13:36:36.600Z,90.10
2022-10-31T13:39:32.244Z,89.56
2022-10-31T13:42:32.348Z,89.96
2022-10-31T13:45:18.769Z,89.58
2022-10-31T13:47:57.093Z,88.77
2022-10-31T13:50:26.574Z,88.15
2022-10-31T13:52:53.284Z,88.70
2022-10-31T13:55:40.319Z,88.97
2022-10-31T13:58:21.141Z,90.46
2022-10-31T14:00:58.731Z,90.88
2022-10-31T14:03:49.437Z,90.73
2022-10-31T14:06:13.970Z,89.89
2022-10-31T14:08:50.364Z,89.87
2022-10-31T14:11:32.841Z,89.96
2022-10-31T14:14:03.103Z,89.63
2022-10-31T14:16:33.523Z,89.20
2022-10-31T14:19:13.965Z,89.42
2022-10-31T14:21:45.958Z,90.03
2022-10-31T14:24:24.725Z,89.89
2022-10-31T14:26:57.567Z,90.54
2022-10-31T14:29:34.871Z,90.82
2022-10-31T14:32:19.275Z,91.51
2022-10-31T14:34:55.480Z,93.08
2022-10-31T14:37:53.090Z,92.56
2022-10-31T14:40:32.875Z,93.36
2022-10-31T14:43:30.406Z,93.64
2022-10-31T14:46:04.997Z,94.00
2022-10-31T14:48:54.243Z,95.28
2022-10-31T14:51:23.470Z,94.86
2022-10-31T14:53:58.542Z,95.40
2022-10-31T14:56:38.381Z,96.35
2022-10-31T14:59:13.733Z,96.59
2022-10-31T15:01:41.147Z,96.38
2022-10-31T15:04:23.559Z,96.67
2022-10-31T15:06:59.026Z,96.64
2022-10-31T15:09:44.725Z,97.36
2022-10-31T15:12:23.623Z,98.24
2022-10-31T15:14:50.307Z,98.82
2022-10-31T15:17:17.466Z,99.26
2022-10-31T15:19:44.798Z,99.62
2022-10-31T15:22:16.961Z,99.42
2022-10-31T15:24:44.520Z,100.00
2022-10-31T15:27:17.557Z,100.00
2022-10-31T15:29:55.631Z,100.00
2022-10-31T15:32:27.561Z,100.00
2022-10-31T15:34:56.863Z,100.00
2022-10-31T15:37:25.947Z,100.00
2022-10-31T15:39:52.742Z,100.00
2022-10-31T15:42:30.212Z,100.00
2022-10-31T15:45:17.731Z,100.00
2022-10-31T15:47:55.430Z,100.00
2022-10-31T15:50:47.191Z,100.00
2022-10-31T15:53:50.871Z,100.00
2022-10-31T15:56:24.163Z,100.00
2022-10-31T15:58:53.652Z,100.00
2022-10-31T16:01:26.083Z,100.00
2022-10-31T16:04:20.929Z,100.00
2022-10-31T16:06:59.421Z,100.00
2022-10-31T16:09:26.280Z,100.00
2022-10-31T16:11:53.041Z,100.00
2022-10-31T16:14:25.679Z,100.00
2022-10-31T16:16:59.067Z,100.00
2022-10-31T16:19:31.239Z,100.00
2022-10-31T16:22:08.918Z,100.00
2022-10-31T16:24:49.351Z,100.00
2022-10-31T16:27:28.023Z,100.00
2022-10-31T16:29:55.232Z,100.00
2022-10-31T16:32:36.214Z,100.00
2022-10-31T16:35:11.508Z,100.00
2022-10-31T16:37:41.474Z,100.00
2022-10-31T16:40:11.252Z,100.00
2022-10-31T16:42:37.814Z,100.00
2022-10-31T16:45:06.685Z,100.00
2022-10-31T16:47:33.333Z,100.00
2022-10-31T16:50:01.235Z,100.00
2022-10-31T16:52:31.516Z,100.00
2022-10-31T16:55:04.921Z,100.00
2022-10-31T16:57:32.424Z,100.00
2022-10-31T16:59:59.075Z,100.00
2022-10-31T17:02:26.090Z,100.00
2022-10-31T17:04:56.617Z,100.00
2022-10-31T17:07:23.618Z,100.00
2022-10-31T17:09:50.179Z,100.00
2022-10-31T17:12:21.441Z,100.00
2022-10-31T17:14:51.904Z,100.00
2022-10-31T17:17:18.549Z,100.00
2022-10-31T17:19:45.245Z,100.00
2022-10-31T17:22:13.230Z,100.00
2022-10-31T17:24:39.909Z,100.00
2022-10-31T17:27:06.861Z,100.00
2022-10-31T17:29:33.512Z,100.00
2022-10-31T17:32:00.555Z,100.00
2022-10-31T17:34:27.188Z,100.00
2022-10-31T17:36:53.982Z,100.00
2022-10-31T17:39:20.694Z,100.00
2022-10-31T17:41:51.269Z,100.00
2022-10-31T17:44:18.403Z,100.00
2022-10-31T17:46:45.066Z,100.00
2022-10-31T17:49:12.483Z,100.00
2022-10-31T17:51:39.182Z,100.00
2022-10-31T17:54:07.096Z,100.00
2022-10-31T17:56:33.668Z,100.00
2022-10-31T17:59:00.562Z,100.00
2022-10-31T18:01:27.377Z,100.00
2022-10-31T18:03:53.982Z,100.00
2022-10-31T18:06:20.531Z,100.00
2022-10-31T18:08:47.483Z,100.00
2022-10-31T18:11:20.990Z,100.00
2022-10-31T18:13:47.999Z,100.00
2022-10-31T18:16:17.461Z,100.00
2022-10-31T18:18:44.060Z,100.00
2022-10-31T18:21:10.862Z,100.00
2022-10-31T18:23:37.552Z,100.00
2022-10-31T18:26:04.465Z,100.00
2022-10-31T18:28:31.030Z,100.00
2022-10-31T18:31:00.971Z,100.00
2022-10-31T18:33:27.717Z,100.00
2022-10-31T18:35:54.419Z,100.00
2022-10-31T18:38:21.278Z,100.00
2022-10-31T18:40:48.008Z,100.00
2022-10-31T18:43:14.547Z,100.00
2022-10-31T18:45:46.871Z,100.00
2022-10-31T18:48:16.188Z,100.00
2022-10-31T18:50:43.247Z,100.00
2022-10-31T18:53:10.107Z,100.00
2022-10-31T18:55:44.062Z,100.00
2022-10-31T18:58:14.343Z,100.00
2022-10-31T19:00:41.003Z,100.00
2022-10-31T19:03:07.602Z,100.00
2022-10-31T19:05:34.255Z,100.00
2022-10-31T19:08:00.849Z,100.00
2022-10-31T19:10:27.409Z,100.00
2022-10-31T19:12:54.124Z,100.00
2022-10-31T19:15:20.795Z,100.00
2022-10-31T19:17:47.442Z,100.00
2022-10-31T19:20:14.299Z,100.00
2022-10-31T19:22:40.876Z,100.00
2022-10-31T19:25:10.712Z,100.00
2022-10-31T19:27:38.397Z,100.00
2022-10-31T19:30:06.127Z,100.00
2022-10-31T19:32:32.886Z,100.00
2022-10-31T19:34:59.514Z,100.00
2022-10-31T19:37:26.088Z,100.00
2022-10-31T19:39:52.897Z,100.00
2022-10-31T19:42:19.567Z,100.00
2022-10-31T19:44:46.223Z,100.00
2022-10-31T19:47:12.890Z,100.00
2022-10-31T19:49:39.476Z,100.00
2022-10-31T19:52:06.090Z,100.00
2022-10-31T19:54:32.726Z,100.00
2022-10-31T19:56:59.362Z,100.00
2022-10-31T19:59:26.474Z,100.00
2022-10-31T20:01:53.210Z,100.00
2022-10-31T20:04:19.922Z,100.00
2022-10-31T20:06:46.565Z,100.00
2022-10-31T20:09:14.214Z,100.00
2022-10-31T20:11:42.486Z,100.00
2022-10-31T20:14:11.657Z,100.00
2022-10-31T20:16:38.519Z,100.00
2022-10-31T20:19:05.172Z,100.00
2022-10-31T20:21:35.458Z,100.00
2022-10-31T20:24:04.019Z,100.00
2022-10-31T20:26:33.617Z,100.00
2022-10-31T20:29:01.173Z,100.00
2022-10-31T20:31:31.137Z,100.00
2022-10-31T20:33:58.085Z,100.00
2022-10-31T20:36:25.489Z,100.00
2022-10-31T20:38:52.636Z,100.00
2022-10-31T20:41:19.533Z,100.00
2022-10-31T20:43:46.800Z,100.00
2022-10-31T20:46:22.440Z,100.00
2022-10-31T20:48:49.997Z,100.00
2022-10-31T20:51:23.831Z,100.00
2022-10-31T20:53:55.170Z,100.00
2022-10-31T20:56:24.210Z,100.00
2022-10-31T20:58:51.008Z,100.00
2022-10-31T21:01:22.836Z,100.00
2022-10-31T21:03:50.345Z,100.00
2022-10-31T21:06:18.280Z,100.00
2022-10-31T21:08:45.509Z,100.00
2022-10-31T21:11:16.108Z,100.00
2022-10-31T21:13:44.329Z,100.00
2022-10-31T21:16:14.192Z,100.00
2022-10-31T21:18:42.769Z,100.00
2022-10-31T21:21:11.364Z,100.00
2022-10-31T21:23:38.763Z,100.00
2022-10-31T21:26:17.277Z,100.00
2022-10-31T21:28:44.015Z,100.00
2022-10-31T21:31:13.643Z,100.00
2022-10-31T21:33:40.495Z,100.00
2022-10-31T21:36:07.519Z,100.00
2022-10-31T21:38:35.385Z,100.00
2022-10-31T21:41:06.439Z,100.00
2022-10-31T21:43:36.234Z,100.00
2022-10-31T21:46:07.473Z,100.00
2022-10-31T21:48:34.325Z,100.00
2022-10-31T21:51:04.771Z,100.00
2022-10-31T21:53:50.169Z,100.00
2022-10-31T21:56:16.860Z,100.00
2022-10-31T21:58:43.485Z,100.00
2022-10-31T22:01:10.258Z,100.00
2022-10-31T22:03:38.458Z,100.00
2022-10-31T22:06:06.619Z,100.00
2022-10-31T22:08:33.424Z,100.00
2022-10-31T22:11:04.818Z,100.00
2022-10-31T22:13:32.853Z,100.00
2022-10-31T22:16:04.343Z,100.00
2022-10-31T22:18:31.004Z,100.00
2022-10-31T22:21:02.060Z,100.00
2022-10-31T22:23:28.990Z,100.00
2022-10-31T22:25:55.787Z,100.00
2022-10-31T22:28:22.418Z,100.00
2022-10-31T22:30:49.064Z,100.00
2022-10-31T22:33:15.671Z,100.00
2022-10-31T22:35:42.161Z,100.00
2022-10-31T22:38:08.773Z,100.00
2022-10-31T22:40:35.300Z,100.00
2022-10-31T22:43:02.074Z,100.00
2022-10-31T22:45:28.930Z,100.00
2022-10-31T22:47:55.463Z,100.00
2022-10-31T22:50:22.063Z,100.00
2022-10-31T22:52:48.667Z,100.00
2022-10-31T22:55:15.657Z,100.00
2022-10-31T22:57:42.234Z,100.00
2022-10-31T23:00:09.404Z,100.00
2022-10-31T23:02:36.348Z,100.00
2022-10-31T23:05:03.126Z,100.00
2022-10-31T23:07:33.055Z,100.00
2022-10-31T23:09:59.879Z,100.00
2022-10-31T23:12:45.048Z,100.00
2022-10-31T23:15:11.661Z,100.00
2022-10-31T23:17:39.248Z,100.00
2022-10-31T23:20:07.264Z,100.00
2022-10-31T23:22:33.851Z,100.00
2022-10-31T23:25:00.527Z,100.00
2022-10-31T23:27:27.232Z,100.00
2022-10-31T23:29:56.467Z,100.00
2022-10-31T23:32:25.223Z,100.00
2022-10-31T23:34:54.429Z,100.00
2022-10-31T23:37:23.369Z,100.00
2022-10-31T23:39:50.442Z,100.00
2022-10-31T23:42:17.560Z,100.00
2022-10-31T23:44:44.763Z,100.00
2022-10-31T23:47:11.716Z,100.00
2022-10-31T23:49:38.479Z,100.00
2022-10-31T23:52:05.894Z,100.00
2022-10-31T23:54:33.059Z,100.00
2022-10-31T23:57:00.143Z,100.00
2022-10-31T23:59:27.016Z,100.00
